Time;durP1;ratioP1;P1;durP2;ratioP2;P2;SDS_P1;SDS_P2;PMS_P1;PMS_P2;Temp;Humidity;BMP_temperature;BMP_pressure;BME280_temperature;BME280_humidity;BME280_pressure;Samples;Min_cycle;Max_cycle;Signal;HPM_P1;HPM_P2
2021/11/26 00:01:04;;;;;;;14.15;6.22;;;;;;;1.28;100.00;100378.16;5020320;28;20393;-76
2021/11/26 00:03:29;;;;;;;16.33;6.00;;;;;;;1.25;100.00;100375.91;5034811;28;20021;-76
2021/11/26 00:05:55;;;;;;;16.23;5.95;;;;;;;1.25;100.00;100384.13;5002913;28;20026;-76
2021/11/26 00:08:20;;;;;;;13.57;5.95;;;;;;;1.21;100.00;100375.56;5036732;28;20052;-76
2021/11/26 00:10:46;;;;;;;18.17;6.65;;;;;;;1.23;100.00;100367.13;5035023;28;20021;-76
2021/11/26 00:13:12;;;;;;;13.45;5.88;;;;;;;1.22;100.00;100366.25;5032879;28;20026;-76
2021/11/26 00:15:40;;;;;;;11.82;6.10;;;;;;;1.20;100.00;100353.88;5018360;28;20037;-76
2021/11/26 00:18:20;;;;;;;11.77;5.55;;;;;;;1.19;100.00;100363.16;5032037;28;20094;-75
2021/11/26 00:20:47;;;;;;;12.88;5.97;;;;;;;1.18;100.00;100347.84;5024365;28;20056;-76
2021/11/26 00:23:12;;;;;;;10.93;5.13;;;;;;;1.16;100.00;100347.25;5024699;28;20042;-75
2021/11/26 00:25:38;;;;;;;12.43;5.95;;;;;;;1.16;100.00;100341.75;5032350;28;20372;-76
2021/11/26 00:28:04;;;;;;;12.88;4.80;;;;;;;1.14;100.00;100336.50;5036565;28;20390;-75
2021/11/26 00:30:30;;;;;;;11.57;5.35;;;;;;;1.14;100.00;100339.25;5034263;28;20029;-75
2021/11/26 00:32:55;;;;;;;12.07;5.65;;;;;;;1.13;100.00;100337.59;5034751;28;20036;-76
2021/11/26 00:35:21;;;;;;;10.55;5.00;;;;;;;1.13;100.00;100331.31;5036905;28;20497;-75
2021/11/26 00:37:46;;;;;;;13.82;5.30;;;;;;;1.12;100.00;100335.94;5030830;28;20717;-75
2021/11/26 00:40:12;;;;;;;14.25;5.20;;;;;;;1.10;100.00;100338.91;5034000;28;20048;-75
2021/11/26 00:42:39;;;;;;;13.77;5.32;;;;;;;1.08;100.00;100332.81;5035814;28;20040;-76
2021/11/26 00:45:05;;;;;;;13.55;5.90;;;;;;;1.09;100.00;100328.22;5030697;28;20029;-75
2021/11/26 00:47:31;;;;;;;13.30;5.03;;;;;;;1.10;100.00;100325.22;5036414;28;20056;-76
2021/11/26 00:49:56;;;;;;;9.00;4.68;;;;;;;1.11;100.00;100323.31;5034779;28;20084;-76
2021/11/26 00:52:22;;;;;;;9.95;5.28;;;;;;;1.09;100.00;100320.00;5013299;28;20398;-76
2021/11/26 00:54:47;;;;;;;11.52;4.78;;;;;;;1.09;100.00;100326.31;5032934;28;20029;-76
2021/11/26 00:57:13;;;;;;;15.02;5.55;;;;;;;1.06;100.00;100320.47;5030384;28;20486;-76
2021/11/26 00:59:38;;;;;;;10.60;5.10;;;;;;;1.05;100.00;100311.41;5027440;28;20033;-76
2021/11/26 01:02:04;;;;;;;9.45;4.68;;;;;;;1.07;100.00;100312.03;5017845;28;20065;-76
2021/11/26 01:04:30;;;;;;;10.88;4.55;;;;;;;1.05;100.00;100307.84;5022530;28;20070;-77
2021/11/26 01:06:55;;;;;;;10.23;4.35;;;;;;;1.06;100.00;100293.97;5033501;28;20026;-76
2021/11/26 01:09:21;;;;;;;11.95;5.05;;;;;;;1.05;100.00;100295.00;5018774;28;20029;-75
2021/11/26 01:11:46;;;;;;;15.52;4.70;;;;;;;1.05;100.00;100294.19;5033715;28;20087;-76
2021/11/26 01:14:12;;;;;;;9.20;4.57;;;;;;;1.06;100.00;100296.69;5029250;28;20389;-76
2021/11/26 01:16:37;;;;;;;10.75;4.32;;;;;;;1.04;100.00;100290.63;5034964;28;20037;-76
2021/11/26 01:19:03;;;;;;;12.02;4.55;;;;;;;1.03;100.00;100288.97;5028676;28;20037;-76
2021/11/26 01:21:29;;;;;;;10.63;4.20;;;;;;;1.04;100.00;100298.81;5033198;28;20068;-76
2021/11/26 01:23:54;;;;;;;12.27;4.70;;;;;;;1.06;100.00;100293.13;5016169;28;20056;-76
2021/11/26 01:26:20;;;;;;;9.50;4.55;;;;;;;1.04;100.00;100285.16;5014338;28;20116;-75
2021/11/26 01:28:50;;;;;;;14.65;4.85;;;;;;;1.05;100.00;100278.59;5032049;28;20108;-76
2021/11/26 01:31:16;;;;;;;10.55;4.30;;;;;;;1.07;100.00;100284.66;5034223;28;20037;-76
2021/11/26 01:33:41;;;;;;;12.07;5.07;;;;;;;1.08;100.00;100280.84;5027694;28;20034;-76
2021/11/26 01:36:07;;;;;;;11.48;4.20;;;;;;;1.08;100.00;100282.75;5025165;28;20561;-76
2021/11/26 01:38:32;;;;;;;11.02;4.53;;;;;;;1.06;100.00;100266.59;5034620;28;20036;-76
2021/11/26 01:40:59;;;;;;;10.77;4.60;;;;;;;1.07;100.00;100267.44;5032745;28;20029;-76
2021/11/26 01:43:24;;;;;;;10.82;4.88;;;;;;;1.06;100.00;100261.13;5034417;28;20103;-76
2021/11/26 01:45:54;;;;;;;12.68;5.03;;;;;;;1.07;100.00;100257.31;5033269;28;20033;-76
2021/11/26 01:48:21;;;;;;;11.60;4.75;;;;;;;1.07;100.00;100254.59;5030760;28;20029;-76
2021/11/26 01:50:46;;;;;;;8.63;4.90;;;;;;;1.08;100.00;100250.78;5014117;28;20041;-76
2021/11/26 01:53:12;;;;;;;12.93;4.95;;;;;;;1.08;100.00;100248.03;5025725;28;20378;-76
2021/11/26 01:55:38;;;;;;;13.85;4.85;;;;;;;1.08;100.00;100250.78;5032085;28;20037;-76
2021/11/26 01:58:03;;;;;;;11.38;4.32;;;;;;;1.08;100.00;100252.69;4990415;28;20037;-76
2021/11/26 02:00:33;;;;;;;10.82;4.13;;;;;;;1.09;100.00;100255.19;5030001;28;20045;-76
2021/11/26 02:02:59;;;;;;;11.23;4.60;;;;;;;1.07;100.00;100246.38;5034104;28;20533;-76
2021/11/26 02:05:24;;;;;;;12.30;5.25;;;;;;;1.07;100.00;100251.84;5017592;28;20025;-76
2021/11/26 02:07:50;;;;;;;11.82;5.00;;;;;;;1.08;100.00;100244.47;5033202;28;20038;-76
2021/11/26 02:10:15;;;;;;;9.10;4.50;;;;;;;1.07;100.00;100246.38;5033404;28;20057;-76
2021/11/26 02:12:41;;;;;;;9.18;4.13;;;;;;;1.06;100.00;100233.78;5033295;28;20072;-76
2021/11/26 02:15:08;;;;;;;9.25;4.15;;;;;;;1.08;100.00;100239.81;5033154;28;20509;-76
2021/11/26 02:17:35;;;;;;;9.45;4.20;;;;;;;1.07;100.00;100223.69;5016981;28;20152;-76
2021/11/26 02:20:00;;;;;;;10.18;4.32;;;;;;;1.07;100.00;100221.75;5018788;28;20033;-76
2021/11/26 02:22:27;;;;;;;10.77;4.38;;;;;;;1.07;100.00;100224.50;5038157;28;20469;-76
2021/11/26 02:24:52;;;;;;;10.30;4.50;;;;;;;1.08;100.00;100222.59;5012859;28;20052;-76
2021/11/26 02:27:18;;;;;;;9.25;4.47;;;;;;;1.08;100.00;100209.75;5017436;28;20037;-76
2021/11/26 02:29:44;;;;;;;11.77;4.95;;;;;;;1.07;100.00;100213.56;5035351;28;20037;-76
2021/11/26 02:32:09;;;;;;;10.20;4.78;;;;;;;1.08;100.00;100214.38;5027626;28;20062;-76
2021/11/26 02:34:35;;;;;;;8.02;4.03;;;;;;;1.07;100.00;100213.56;5010309;28;20156;-76
2021/11/26 02:37:00;;;;;;;12.68;4.85;;;;;;;1.09;100.00;100211.44;5033138;28;20033;-76
2021/11/26 02:39:26;;;;;;;11.13;4.53;;;;;;;1.08;100.00;100212.47;5018265;28;20037;-76
2021/11/26 02:41:51;;;;;;;10.93;4.00;;;;;;;1.07;100.00;100208.09;5036646;28;20021;-76
2021/11/26 02:44:17;;;;;;;10.00;4.10;;;;;;;1.05;100.00;100196.56;5035821;28;20041;-76
2021/11/26 02:46:42;;;;;;;9.95;4.50;;;;;;;1.14;100.00;100185.25;5036942;28;20064;-76
2021/11/26 02:49:08;;;;;;;5.95;3.70;;;;;;;1.07;100.00;100180.75;5008455;28;20040;-76
2021/11/26 02:51:34;;;;;;;8.38;3.95;;;;;;;1.06;100.00;100190.03;5036598;28;20116;-76
2021/11/26 02:54:00;;;;;;;8.20;4.15;;;;;;;1.07;100.00;100175.28;5032385;28;20109;-76
2021/11/26 02:56:26;;;;;;;12.35;3.92;;;;;;;1.06;100.00;100162.69;5026598;28;20061;-76
2021/11/26 02:58:52;;;;;;;10.68;4.30;;;;;;;1.07;100.00;100160.78;5019913;28;20026;-76
2021/11/26 03:01:17;;;;;;;9.90;4.22;;;;;;;1.07;100.00;100153.38;5036168;28;20083;-76
2021/11/26 03:03:43;;;;;;;10.15;4.25;;;;;;;1.06;100.00;100145.44;5046761;28;20033;-76
2021/11/26 03:06:08;;;;;;;10.93;4.35;;;;;;;1.07;100.00;100145.19;5033224;28;20033;-76
2021/11/26 03:08:34;;;;;;;7.43;4.13;;;;;;;1.08;100.00;100148.75;5035242;28;20037;-76
2021/11/26 03:11:00;;;;;;;8.82;3.75;;;;;;;1.07;100.00;100139.72;5036833;28;20048;-76
2021/11/26 03:13:25;;;;;;;8.50;4.00;;;;;;;1.07;100.00;100136.97;5006787;28;20038;-76
2021/11/26 03:15:51;;;;;;;6.80;3.45;;;;;;;1.09;100.00;100140.31;5030879;28;20030;-76
2021/11/26 03:18:18;;;;;;;9.85;3.63;;;;;;;1.08;100.00;100122.22;5029348;28;20482;-76
2021/11/26 03:20:47;;;;;;;7.97;3.85;;;;;;;1.09;100.00;100123.91;5035781;28;20167;-76
2021/11/26 03:23:13;;;;;;;10.98;4.18;;;;;;;1.10;100.00;100122.00;5032793;28;20045;-76
2021/11/26 03:25:41;;;;;;;9.73;3.80;;;;;;;1.09;100.00;100104.75;5041170;28;20029;-76
2021/11/26 03:28:07;;;;;;;6.68;3.80;;;;;;;1.10;100.00;100097.38;5029660;28;20057;-76
2021/11/26 03:30:33;;;;;;;9.10;3.63;;;;;;;1.09;100.00;100095.72;5033827;28;20038;-76
2021/11/26 03:32:58;;;;;;;7.53;3.47;;;;;;;1.07;100.00;100093.22;5018654;28;20052;-76
2021/11/26 03:35:24;;;;;;;6.25;3.25;;;;;;;1.09;100.00;100095.72;5026291;28;20036;-76
2021/11/26 03:37:49;;;;;;;8.00;3.63;;;;;;;1.09;100.00;100085.63;5026831;28;20040;-76
2021/11/26 03:40:17;;;;;;;10.07;3.35;;;;;;;1.10;100.00;100075.50;5034807;28;20029;-76
2021/11/26 03:42:42;;;;;;;9.23;3.75;;;;;;;1.09;100.00;100069.22;5034668;28;20028;-76
2021/11/26 03:45:08;;;;;;;7.75;3.78;;;;;;;1.08;100.00;100081.19;5002306;28;20029;-76
2021/11/26 03:47:34;;;;;;;8.85;3.75;;;;;;;1.07;100.00;100082.28;5034699;28;20112;-76
2021/11/26 03:49:59;;;;;;;13.13;4.15;;;;;;;1.07;100.00;100060.41;5035781;28;20133;-76
2021/11/26 03:52:25;;;;;;;8.60;4.07;;;;;;;1.06;100.00;100056.03;5033385;28;20379;-76
2021/11/26 03:54:50;;;;;;;7.20;3.78;;;;;;;1.06;100.00;100053.28;5037237;28;20032;-76
2021/11/26 03:57:16;;;;;;;7.70;3.95;;;;;;;1.06;100.00;100053.28;5019945;28;20044;-76
2021/11/26 03:59:41;;;;;;;10.73;4.30;;;;;;;1.04;100.00;100054.59;5030419;28;20041;-76
2021/11/26 04:02:08;;;;;;;6.95;3.92;;;;;;;1.03;100.00;100048.31;5034575;28;20032;-75
2021/11/26 04:04:33;;;;;;;10.57;4.30;;;;;;;1.01;100.00;100055.91;5037660;28;20032;-76
2021/11/26 04:06:59;;;;;;;10.07;4.40;;;;;;;0.99;100.00;100052.56;5034528;28;20034;-76
2021/11/26 04:09:25;;;;;;;8.98;4.80;;;;;;;0.98;100.00;100055.56;5017356;28;20045;-75
2021/11/26 04:11:50;;;;;;;10.15;4.43;;;;;;;0.95;100.00;100043.22;5037234;28;20171;-76
2021/11/26 04:14:16;;;;;;;9.52;4.50;;;;;;;0.98;100.00;100042.72;5013874;28;20045;-76
2021/11/26 04:16:41;;;;;;;12.13;4.53;;;;;;;0.97;100.00;100040.22;5036057;28;20502;-75
2021/11/26 04:19:07;;;;;;;10.10;4.75;;;;;;;0.96;100.00;100035.84;5037299;28;20017;-75
2021/11/26 04:21:33;;;;;;;10.65;4.53;;;;;;;0.94;100.00;100016.09;5039328;28;20046;-76
2021/11/26 04:23:58;;;;;;;13.35;4.50;;;;;;;0.96;100.00;100023.00;5034912;28;20050;-76
2021/11/26 04:26:24;;;;;;;10.15;4.75;;;;;;;0.92;100.00;100021.81;5034001;28;20025;-76
2021/11/26 04:28:49;;;;;;;10.60;5.38;;;;;;;0.90;100.00;100015.75;5019949;28;20029;-76
2021/11/26 04:31:15;;;;;;;10.32;4.65;;;;;;;0.88;100.00;100017.91;5033712;28;20037;-76
2021/11/26 04:33:40;;;;;;;12.13;5.03;;;;;;;0.86;100.00;100006.38;5032503;28;20080;-76
2021/11/26 04:36:06;;;;;;;10.57;4.63;;;;;;;0.85;100.00;100008.28;5035315;28;20056;-76
2021/11/26 04:38:32;;;;;;;8.77;4.82;;;;;;;0.84;100.00;100000.34;5035781;28;20037;-76
2021/11/26 04:40:57;;;;;;;9.18;4.72;;;;;;;0.82;100.00;99997.00;5033527;28;20359;-75
2021/11/26 04:43:23;;;;;;;8.88;4.95;;;;;;;0.80;100.00;99996.41;5036684;28;20021;-76
2021/11/26 04:45:51;;;;;;;13.27;5.20;;;;;;;0.79;100.00;99992.03;5023916;28;20517;-76
2021/11/26 04:48:20;;;;;;;8.63;4.47;;;;;;;0.79;100.00;99986.56;5032471;28;20079;-76
2021/11/26 04:50:46;;;;;;;17.85;4.85;;;;;;;0.76;100.00;99978.84;5019980;28;20029;-76
2021/11/26 04:53:11;;;;;;;11.30;4.70;;;;;;;0.81;100.00;99974.31;5034168;28;20029;-75
2021/11/26 04:55:37;;;;;;;10.30;4.75;;;;;;;0.76;100.00;99974.19;5035572;28;20029;-77
2021/11/26 04:58:02;;;;;;;10.77;4.90;;;;;;;0.76;100.00;99973.38;5024476;28;20034;-76
2021/11/26 05:00:28;;;;;;;11.57;4.90;;;;;;;0.75;100.00;99975.25;5044217;28;20084;-75
2021/11/26 05:02:54;;;;;;;10.10;4.70;;;;;;;0.73;100.00;99982.06;5036406;28;20527;-76
2021/11/26 05:05:19;;;;;;;10.13;5.03;;;;;;;0.74;100.00;99967.31;5034028;28;20099;-76
2021/11/26 05:07:45;;;;;;;10.95;4.75;;;;;;;0.73;100.00;99973.88;5023965;28;20033;-76
2021/11/26 05:10:11;;;;;;;7.10;4.60;;;;;;;0.73;100.00;99962.94;5016234;28;20021;-76
2021/11/26 05:12:40;;;;;;;7.70;4.57;;;;;;;0.73;100.00;99966.50;5033515;28;20049;-76
2021/11/26 05:15:07;;;;;;;10.98;4.70;;;;;;;0.74;100.00;99961.84;5034515;28;20040;-76
2021/11/26 05:17:32;;;;;;;10.40;5.13;;;;;;;0.70;100.00;99961.50;5034288;28;20041;-76
2021/11/26 05:19:58;;;;;;;8.80;4.70;;;;;;;0.73;100.00;99955.56;5035001;28;20056;-76
2021/11/26 05:22:24;;;;;;;10.35;5.18;;;;;;;0.72;100.00;99948.41;5031199;28;20730;-76
2021/11/26 05:24:49;;;;;;;9.52;4.78;;;;;;;0.71;100.00;99940.47;5033143;28;20077;-75
2021/11/26 05:27:15;;;;;;;10.02;4.55;;;;;;;0.72;100.00;99939.38;5035138;28;20037;-76
2021/11/26 05:29:40;;;;;;;7.00;4.45;;;;;;;0.72;100.00;99932.00;5029145;28;20036;-76
2021/11/26 05:32:06;;;;;;;10.48;5.95;;;;;;;0.72;100.00;99928.44;5032939;28;20469;-76
2021/11/26 05:34:31;;;;;;;12.57;4.60;;;;;;;0.74;100.00;99929.88;5022948;28;20036;-76
2021/11/26 05:36:57;;;;;;;12.82;4.82;;;;;;;0.72;100.00;99923.81;5032830;28;20033;-76
2021/11/26 05:39:23;;;;;;;11.10;4.60;;;;;;;0.73;100.00;99921.94;5033364;28;20022;-76
2021/11/26 05:41:49;;;;;;;10.93;4.80;;;;;;;0.73;100.00;99905.53;5029397;28;20038;-76
2021/11/26 05:44:14;;;;;;;13.48;5.45;;;;;;;0.73;100.00;99900.06;5033808;28;20106;-76
2021/11/26 05:46:40;;;;;;;10.80;4.75;;;;;;;0.72;100.00;99906.59;5033080;28;21430;-76
2021/11/26 05:49:05;;;;;;;7.53;4.90;;;;;;;0.76;100.00;99900.41;5035913;28;20029;-76
2021/11/26 05:51:31;;;;;;;7.40;4.88;;;;;;;0.74;100.00;99904.44;5034341;28;20650;-75
2021/11/26 05:53:56;;;;;;;7.80;4.68;;;;;;;0.74;100.00;99904.44;5034151;28;20150;-76
2021/11/26 05:56:22;;;;;;;8.48;4.97;;;;;;;0.76;100.00;99894.09;5035602;28;20036;-76
2021/11/26 05:58:47;;;;;;;9.32;4.93;;;;;;;0.74;100.00;99886.13;5031393;28;20033;-76
2021/11/26 06:01:13;;;;;;;9.85;5.22;;;;;;;0.75;100.00;99881.50;4997231;28;20084;-76
2021/11/26 06:03:39;;;;;;;10.80;4.57;;;;;;;0.76;100.00;99877.72;5033902;28;20017;-76
2021/11/26 06:06:04;;;;;;;9.38;4.47;;;;;;;0.78;100.00;99872.81;5033572;28;20061;-76
2021/11/26 06:08:30;;;;;;;11.90;5.07;;;;;;;0.77;100.00;99869.25;5035558;28;20037;-77
2021/11/26 06:10:55;;;;;;;9.82;4.72;;;;;;;0.76;100.00;99867.59;5001153;28;20022;-76
2021/11/26 06:13:21;;;;;;;9.18;5.20;;;;;;;0.76;100.00;99858.56;5036954;28;20033;-76
2021/11/26 06:15:46;;;;;;;7.43;4.63;;;;;;;0.79;100.00;99863.53;5039602;28;20030;-76
2021/11/26 06:18:12;;;;;;;7.55;4.78;;;;;;;0.77;100.00;99858.31;5002742;28;20397;-76
2021/11/26 06:20:38;;;;;;;6.93;4.47;;;;;;;0.76;100.00;99844.91;5036316;28;20034;-76
2021/11/26 06:23:03;;;;;;;10.55;4.93;;;;;;;0.79;100.00;99837.03;5038459;28;20088;-76
2021/11/26 06:25:29;;;;;;;9.73;5.40;;;;;;;0.85;100.00;99835.22;5035120;28;20422;-76
2021/11/26 06:27:54;;;;;;;10.57;4.72;;;;;;;0.82;100.00;99844.75;5037902;28;20026;-76
2021/11/26 06:30:22;;;;;;;12.80;5.63;;;;;;;0.82;100.00;99835.72;5037005;28;20041;-77
2021/11/26 06:32:48;;;;;;;7.97;4.45;;;;;;;0.84;100.00;99830.84;5032410;28;20401;-75
2021/11/26 06:35:14;;;;;;;8.48;4.85;;;;;;;0.83;100.00;99823.69;5027247;28;20040;-76
2021/11/26 06:37:40;;;;;;;9.25;4.75;;;;;;;0.84;100.00;99818.00;5037908;28;20413;-76
2021/11/26 06:40:06;;;;;;;12.27;4.85;;;;;;;0.84;100.00;99817.16;5037265;28;20121;-75
2021/11/26 06:42:31;;;;;;;10.90;5.30;;;;;;;0.88;100.00;99815.59;5039317;28;20036;-76
2021/11/26 06:44:57;;;;;;;;;;;;;;;0.88;100.00;99813.66;5020119;28;20025;-76
2021/11/26 06:47:22;;;;;;;6.40;4.30;;;;;;;0.92;100.00;99805.81;5038853;28;19913;-76
2021/11/26 06:49:48;;;;;;;8.68;5.47;;;;;;;0.89;100.00;99801.69;5039686;28;20033;-76
2021/11/26 06:52:14;;;;;;;9.90;4.95;;;;;;;0.89;100.00;99795.38;5036514;28;20164;-76
2021/11/26 06:54:40;;;;;;;8.90;4.82;;;;;;;0.93;100.00;99792.97;5038145;28;20037;-76
2021/11/26 06:57:06;;;;;;;6.82;4.55;;;;;;;0.93;100.00;99782.03;5034297;28;20046;-76
2021/11/26 06:59:31;;;;;;;;;;;;;;;0.96;100.00;99778.81;5011708;28;20141;-75
2021/11/26 07:01:56;;;;;;;9.07;4.72;;;;;;;0.96;100.00;99773.34;5045746;28;19912;-76
2021/11/26 07:04:23;;;;;;;9.57;4.80;;;;;;;1.00;100.00;99774.47;5037597;28;20037;-76
2021/11/26 07:06:48;;;;;;;10.15;5.00;;;;;;;1.04;100.00;99765.53;5033014;28;20101;-77
2021/11/26 07:09:14;;;;;;;9.60;5.20;;;;;;;1.04;100.00;99770.19;5038284;28;20033;-76
2021/11/26 07:11:39;;;;;;;11.85;5.07;;;;;;;1.07;100.00;99765.03;5036644;28;20087;-76
2021/11/26 07:14:05;;;;;;;9.30;5.22;;;;;;;1.08;100.00;99772.16;5019353;28;20036;-76
2021/11/26 07:16:31;;;;;;;11.77;5.57;;;;;;;1.10;100.00;99770.00;5037006;28;20041;-75
2021/11/26 07:18:56;;;;;;;9.45;5.57;;;;;;;1.13;100.00;99760.47;5016751;28;20117;-73
2021/11/26 07:21:22;;;;;;;10.90;4.80;;;;;;;1.14;100.00;99748.44;5032876;28;20034;-74
2021/11/26 07:23:47;;;;;;;9.73;4.80;;;;;;;1.13;100.00;99745.97;5038045;28;20053;-74
2021/11/26 07:26:13;;;;;;;7.20;4.70;;;;;;;1.16;100.00;99737.28;5027567;28;20029;-78
2021/11/26 07:28:38;;;;;;;7.90;4.03;;;;;;;1.17;100.00;99722.50;5016798;28;20033;-74
2021/11/26 07:31:04;;;;;;;8.80;5.05;;;;;;;1.19;100.00;99721.19;5026203;28;20041;-74
2021/11/26 07:33:29;;;;;;;14.88;5.30;;;;;;;1.23;100.00;99718.78;5035766;28;20171;-74
2021/11/26 07:35:54;;;;;;;11.73;5.00;;;;;;;1.26;100.00;99713.63;5018082;28;20733;-74
2021/11/26 07:38:20;;;;;;;14.23;4.63;;;;;;;1.24;100.00;99715.78;5006466;28;20032;-74
2021/11/26 07:40:45;;;;;;;8.93;4.50;;;;;;;1.26;100.00;99708.16;4989643;28;20091;-74
2021/11/26 07:43:11;;;;;;;9.88;5.35;;;;;;;1.27;100.00;99706.25;5017205;28;20033;-74
2021/11/26 07:45:36;;;;;;;6.90;4.32;;;;;;;1.27;100.00;99698.03;5036504;28;20041;-74
2021/11/26 07:48:02;;;;;;;9.57;5.38;;;;;;;1.26;100.00;99691.75;5019276;28;20034;-74
2021/11/26 07:50:28;;;;;;;11.32;4.53;;;;;;;1.28;100.00;99683.28;5037301;28;20072;-74
2021/11/26 07:52:54;;;;;;;8.35;4.72;;;;;;;1.26;100.00;99680.00;5018753;28;20469;-74
2021/11/26 07:55:19;;;;;;;7.70;4.35;;;;;;;1.29;100.00;99674.00;5033235;28;20030;-74
2021/11/26 07:57:45;;;;;;;8.15;4.90;;;;;;;1.27;100.00;99676.97;5001553;28;20657;-74
2021/11/26 08:00:11;;;;;;;11.45;5.00;;;;;;;1.26;100.00;99674.50;5019728;28;20109;-74
2021/11/26 08:02:37;;;;;;;11.93;5.40;;;;;;;1.27;100.00;99663.31;5031433;28;20026;-74
2021/11/26 08:05:03;;;;;;;8.80;4.65;;;;;;;1.29;100.00;99668.53;5036218;28;20063;-74
2021/11/26 08:07:30;;;;;;;10.32;5.10;;;;;;;1.27;100.00;99662.47;5008186;28;20546;-74
2021/11/26 08:09:55;;;;;;;7.63;4.55;;;;;;;1.28;100.00;99645.84;5034383;28;20032;-74
2021/11/26 08:12:21;;;;;;;11.50;4.93;;;;;;;1.30;100.00;99645.56;5029271;28;20042;-74
2021/11/26 08:14:48;;;;;;;11.63;4.88;;;;;;;1.29;100.00;99643.91;5025741;28;20040;-74
2021/11/26 08:17:14;;;;;;;8.32;4.95;;;;;;;1.29;100.00;99639.25;5029221;28;20611;-74
2021/11/26 08:19:39;;;;;;;8.90;4.90;;;;;;;1.28;100.00;99634.03;5035896;28;20064;-74
2021/11/26 08:22:05;;;;;;;9.90;4.35;;;;;;;1.30;100.00;99631.88;5032496;28;20076;-74
2021/11/26 08:24:30;;;;;;;12.25;4.55;;;;;;;1.32;100.00;99624.25;5017283;28;20080;-74
2021/11/26 08:26:56;;;;;;;9.52;4.35;;;;;;;1.30;100.00;99629.16;5036475;28;20029;-74
2021/11/26 08:29:21;;;;;;;9.32;4.57;;;;;;;1.32;100.00;99630.53;5030724;28;20033;-74
2021/11/26 08:31:47;;;;;;;10.63;4.55;;;;;;;1.35;100.00;99621.00;5016614;28;20482;-74
2021/11/26 08:34:13;;;;;;;9.65;4.53;;;;;;;1.35;100.00;99623.75;5017016;28;20478;-74
2021/11/26 08:36:39;;;;;;;9.70;4.30;;;;;;;1.37;100.00;99616.13;5031390;28;20021;-74
2021/11/26 08:39:05;;;;;;;11.32;4.65;;;;;;;1.39;100.00;99605.72;5019124;28;20517;-74
2021/11/26 08:41:30;;;;;;;10.00;4.13;;;;;;;1.40;100.00;99610.13;5034128;28;20025;-74
2021/11/26 08:43:56;;;;;;;7.70;4.03;;;;;;;1.42;100.00;99607.97;5015551;28;20029;-74
2021/11/26 08:46:21;;;;;;;9.05;3.88;;;;;;;1.45;100.00;99612.06;5019051;28;20033;-74
2021/11/26 08:48:47;;;;;;;8.45;3.97;;;;;;;1.49;100.00;99602.28;5017668;28;20041;-74
2021/11/26 08:51:12;;;;;;;7.32;4.00;;;;;;;1.52;100.00;99591.66;5018973;28;20179;-74
2021/11/26 08:53:43;;;;;;;7.65;3.78;;;;;;;1.56;100.00;99592.81;5033230;28;20091;-74
2021/11/26 08:56:09;;;;;;;8.07;3.60;;;;;;;1.61;100.00;99596.66;5029700;28;20544;-74
2021/11/26 08:58:36;;;;;;;7.03;3.58;;;;;;;1.64;100.00;99585.19;5013119;28;20033;-74
2021/11/26 09:01:02;;;;;;;6.68;3.42;;;;;;;1.68;100.00;99589.09;5033226;28;20034;-74
2021/11/26 09:03:27;;;;;;;10.00;3.67;;;;;;;1.73;100.00;99586.41;5001779;28;20029;-74
2021/11/26 09:05:52;;;;;;;7.55;3.53;;;;;;;1.76;100.00;99581.22;5036774;28;20037;-76
2021/11/26 09:08:18;;;;;;;10.90;4.00;;;;;;;1.82;100.00;99586.75;5006689;28;20041;-76
2021/11/26 09:10:45;;;;;;;5.45;3.25;;;;;;;1.85;100.00;99578.84;5034808;28;20034;-76
2021/11/26 09:13:10;;;;;;;7.60;3.40;;;;;;;1.90;100.00;99570.69;5032882;28;20071;-76
2021/11/26 09:15:36;;;;;;;6.15;3.10;;;;;;;1.98;100.00;99572.13;5018589;28;20034;-76
2021/11/26 09:18:02;;;;;;;6.07;3.30;;;;;;;2.03;100.00;99565.84;5033235;28;20103;-76
2021/11/26 09:20:27;;;;;;;6.53;2.97;;;;;;;2.07;100.00;99559.59;5017164;28;20128;-76
2021/11/26 09:22:53;;;;;;;5.18;2.70;;;;;;;2.13;100.00;99553.06;5010081;28;20033;-76
2021/11/26 09:25:18;;;;;;;8.30;2.67;;;;;;;2.23;100.00;99557.81;5001930;28;20071;-76
2021/11/26 09:27:44;;;;;;;5.32;3.10;;;;;;;2.29;100.00;99544.97;5030915;28;20033;-76
2021/11/26 09:30:12;;;;;;;9.02;3.10;;;;;;;2.35;100.00;99544.75;5032548;28;20025;-76
2021/11/26 09:32:38;;;;;;;7.82;3.40;;;;;;;2.42;100.00;99548.09;5016289;28;20076;-76
2021/11/26 09:35:04;;;;;;;8.57;3.05;;;;;;;2.49;100.00;99536.06;5018584;28;20033;-75
2021/11/26 09:37:29;;;;;;;11.48;3.13;;;;;;;2.56;100.00;99533.91;5032631;28;20060;-75
2021/11/26 09:39:55;;;;;;;5.78;2.95;;;;;;;2.62;100.00;99532.88;5035129;28;20030;-76
2021/11/26 09:42:20;;;;;;;13.82;3.30;;;;;;;2.67;100.00;99519.16;5034076;28;20022;-76
2021/11/26 09:44:46;;;;;;;7.00;2.90;;;;;;;2.72;100.00;99510.97;5032228;28;20091;-76
2021/11/26 09:47:12;;;;;;;5.28;2.90;;;;;;;2.79;100.00;99495.09;5036473;28;20393;-75
2021/11/26 09:49:37;;;;;;;8.88;3.45;;;;;;;2.83;100.00;99490.72;5023624;28;20430;-75
2021/11/26 09:52:03;;;;;;;8.23;3.33;;;;;;;2.90;100.00;99479.53;5033561;28;20383;-76
2021/11/26 09:54:38;;;;;;;6.47;2.70;;;;;;;2.94;100.00;99479.81;5015438;28;20045;-75
2021/11/26 09:57:04;;;;;;;7.05;2.95;;;;;;;2.98;100.00;99469.94;5031564;28;20033;-76
2021/11/26 09:59:30;;;;;;;9.85;2.85;;;;;;;3.05;100.00;99471.34;5015150;28;20641;-76
2021/11/26 10:01:56;;;;;;;9.73;3.00;;;;;;;3.12;100.00;99462.84;5030421;28;20050;-75
2021/11/26 10:04:22;;;;;;;6.82;2.90;;;;;;;3.22;100.00;99467.53;5031827;28;20065;-75
2021/11/26 10:06:47;;;;;;;11.70;3.40;;;;;;;3.27;100.00;99462.88;5033819;28;20036;-76
2021/11/26 10:09:21;;;;;;;7.70;2.92;;;;;;;3.34;100.00;99452.47;5032883;28;20025;-76
2021/11/26 10:11:54;;;;;;;4.68;2.65;;;;;;;3.45;100.00;99447.81;5014678;28;20458;-76
2021/11/26 10:14:23;;;;;;;9.20;3.40;;;;;;;3.53;100.00;99438.22;5027396;28;20033;-76
2021/11/26 10:16:54;;;;;;;12.25;3.25;;;;;;;3.59;100.00;99442.59;5033631;28;20087;-76
2021/11/26 10:19:54;;;;;;;8.02;2.75;;;;;;;3.64;100.00;99431.63;5032000;28;20029;-76
2021/11/26 10:22:27;;;;;;;9.30;2.90;;;;;;;3.71;100.00;99425.88;5030486;28;20033;-76
2021/11/26 10:25:06;;;;;;;11.15;3.00;;;;;;;3.74;100.00;99417.91;5016603;28;20045;-76
2021/11/26 10:27:49;;;;;;;11.00;3.60;;;;;;;3.82;100.00;99413.78;5017717;28;20044;-76
2021/11/26 10:30:19;;;;;;;10.40;3.08;;;;;;;3.90;100.00;99413.22;5026929;28;20411;-76
2021/11/26 10:33:10;;;;;;;10.38;2.80;;;;;;;3.94;100.00;99402.50;5024778;28;20029;-77
2021/11/26 10:35:37;;;;;;;9.82;2.95;;;;;;;4.00;100.00;99393.97;5014246;28;20036;-76
2021/11/26 10:38:07;;;;;;;14.07;3.00;;;;;;;4.04;100.00;99388.75;5044611;28;20034;-76
2021/11/26 10:40:34;;;;;;;10.75;3.45;;;;;;;4.09;100.00;99379.66;5024619;28;20029;-77
2021/11/26 10:43:04;;;;;;;10.15;3.30;;;;;;;4.13;100.00;99375.25;4987199;28;20540;-77
2021/11/26 10:48:49;;;;;;;11.30;3.53;;;;;;;4.20;100.00;99342.78;5042550;28;20045;-77
2021/11/26 10:57:10;;;;;;;12.35;3.15;;;;;;;4.35;100.00;99320.75;5030189;28;20037;-76
2021/11/26 10:59:36;;;;;;;12.75;3.25;;;;;;;4.42;100.00;99304.75;5019128;28;20057;-76
2021/11/26 11:02:02;;;;;;;10.68;3.15;;;;;;;4.47;100.00;99292.94;5034812;28;20151;-77
2021/11/26 11:04:28;;;;;;;11.30;3.50;;;;;;;4.54;100.00;99276.94;5028933;28;20041;-77
2021/11/26 11:07:01;;;;;;;10.57;3.22;;;;;;;4.62;100.00;99284.56;5017027;28;20026;-77
2021/11/26 11:09:27;;;;;;;;;;;;;;;4.67;100.00;99267.22;5021232;28;20048;-77
2021/11/26 11:11:53;;;;;;;13.45;3.63;;;;;;;4.70;100.00;99264.72;5020208;28;19913;-77
2021/11/26 11:14:22;;;;;;;10.27;3.63;;;;;;;4.75;100.00;99258.38;5001015;28;20041;-76
2021/11/26 11:16:55;;;;;;;13.18;4.03;;;;;;;4.78;100.00;99248.72;5020003;28;20053;-77
2021/11/26 11:19:21;;;;;;;12.60;3.72;;;;;;;4.83;100.00;99248.69;5020115;28;20449;-77
2021/11/26 11:21:47;;;;;;;12.95;4.10;;;;;;;4.87;100.00;99244.25;5036352;28;20037;-77
2021/11/26 11:24:13;;;;;;;15.05;4.22;;;;;;;4.91;100.00;99229.63;5004143;28;20041;-77
2021/11/26 11:26:45;;;;;;;9.65;3.40;;;;;;;4.95;100.00;99227.13;5033958;28;20168;-76
2021/11/26 11:29:14;;;;;;;12.32;3.30;;;;;;;4.99;100.00;99205.38;5036575;28;20036;-76
2021/11/26 11:31:43;;;;;;;14.75;4.68;;;;;;;5.02;100.00;99210.31;5006933;28;20028;-77